sensor_id;sensor_type;location;lat;lon;timestamp;temperature;humidity
21676;DHT22;10999;51.332;9.458;2023-04-03T00:01:06;3.10;56.30
21676;DHT22;10999;51.332;9.458;2023-04-03T00:03:33;3.00;56.70
21676;DHT22;10999;51.332;9.458;2023-04-03T00:06:02;3.00;56.60
21676;DHT22;10999;51.332;9.458;2023-04-03T00:08:28;2.90;56.90
21676;DHT22;10999;51.332;9.458;2023-04-03T00:10:57;2.80;56.40
21676;DHT22;10999;51.332;9.458;2023-04-03T00:13:24;2.80;55.30
21676;DHT22;10999;51.332;9.458;2023-04-03T00:15:51;2.70;55.30
21676;DHT22;10999;51.332;9.458;2023-04-03T00:18:18;2.70;55.80
21676;DHT22;10999;51.332;9.458;2023-04-03T00:20:45;2.60;56.20
21676;DHT22;10999;51.332;9.458;2023-04-03T00:23:12;2.50;56.60
21676;DHT22;10999;51.332;9.458;2023-04-03T00:25:39;2.40;57.60
21676;DHT22;10999;51.332;9.458;2023-04-03T00:28:06;2.40;59.00
21676;DHT22;10999;51.332;9.458;2023-04-03T00:30:33;2.30;59.90
21676;DHT22;10999;51.332;9.458;2023-04-03T00:33:00;2.20;61.30
21676;DHT22;10999;51.332;9.458;2023-04-03T00:35:28;2.10;62.20
21676;DHT22;10999;51.332;9.458;2023-04-03T00:37:55;2.10;62.80
21676;DHT22;10999;51.332;9.458;2023-04-03T00:40:24;2.00;63.60
21676;DHT22;10999;51.332;9.458;2023-04-03T00:42:56;1.90;64.60
21676;DHT22;10999;51.332;9.458;2023-04-03T00:45:47;1.90;65.30
21676;DHT22;10999;51.332;9.458;2023-04-03T00:49:01;1.80;65.80
21676;DHT22;10999;51.332;9.458;2023-04-03T00:51:13;1.80;66.40
21676;DHT22;10999;51.332;9.458;2023-04-03T00:54:03;1.70;66.70
21676;DHT22;10999;51.332;9.458;2023-04-03T00:56:31;1.70;67.10
21676;DHT22;10999;51.332;9.458;2023-04-03T00:59:02;1.60;67.90
21676;DHT22;10999;51.332;9.458;2023-04-03T01:01:29;1.60;68.20
21676;DHT22;10999;51.332;9.458;2023-04-03T01:03:59;1.50;69.10
21676;DHT22;10999;51.332;9.458;2023-04-03T01:06:29;1.50;69.10
21676;DHT22;10999;51.332;9.458;2023-04-03T01:08:58;1.50;69.20
21676;DHT22;10999;51.332;9.458;2023-04-03T01:11:26;1.40;69.10
21676;DHT22;10999;51.332;9.458;2023-04-03T01:13:53;1.40;69.40
21676;DHT22;10999;51.332;9.458;2023-04-03T01:16:20;1.40;69.80
21676;DHT22;10999;51.332;9.458;2023-04-03T01:18:47;1.30;70.10
21676;DHT22;10999;51.332;9.458;2023-04-03T01:26:55;1.20;71.40
21676;DHT22;10999;51.332;9.458;2023-04-03T01:29:22;1.10;72.00
21676;DHT22;10999;51.332;9.458;2023-04-03T01:31:54;1.10;72.20
21676;DHT22;10999;51.332;9.458;2023-04-03T01:34:22;1.10;72.50
21676;DHT22;10999;51.332;9.458;2023-04-03T01:36:49;1.00;73.00
21676;DHT22;10999;51.332;9.458;2023-04-03T01:39:17;1.00;73.40
21676;DHT22;10999;51.332;9.458;2023-04-03T01:41:44;0.90;74.30
21676;DHT22;10999;51.332;9.458;2023-04-03T01:44:11;0.90;74.60
21676;DHT22;10999;51.332;9.458;2023-04-03T01:46:38;0.80;74.90
21676;DHT22;10999;51.332;9.458;2023-04-03T01:49:05;0.80;75.10
21676;DHT22;10999;51.332;9.458;2023-04-03T01:51:31;0.70;75.20
21676;DHT22;10999;51.332;9.458;2023-04-03T01:53:59;0.70;75.60
21676;DHT22;10999;51.332;9.458;2023-04-03T01:56:26;0.70;76.00
21676;DHT22;10999;51.332;9.458;2023-04-03T01:58:53;0.70;76.40
21676;DHT22;10999;51.332;9.458;2023-04-03T02:01:20;0.60;76.90
21676;DHT22;10999;51.332;9.458;2023-04-03T02:03:47;0.60;77.40
21676;DHT22;10999;51.332;9.458;2023-04-03T02:06:14;0.60;77.50
21676;DHT22;10999;51.332;9.458;2023-04-03T02:08:41;0.50;77.70
21676;DHT22;10999;51.332;9.458;2023-04-03T02:11:08;0.50;77.80
21676;DHT22;10999;51.332;9.458;2023-04-03T02:13:34;0.50;77.90
21676;DHT22;10999;51.332;9.458;2023-04-03T02:16:09;0.40;78.40
21676;DHT22;10999;51.332;9.458;2023-04-03T02:18:36;0.40;78.50
21676;DHT22;10999;51.332;9.458;2023-04-03T02:21:03;0.40;78.70
21676;DHT22;10999;51.332;9.458;2023-04-03T02:23:30;0.40;78.80
21676;DHT22;10999;51.332;9.458;2023-04-03T02:26:05;0.40;79.20
21676;DHT22;10999;51.332;9.458;2023-04-03T02:28:32;0.30;79.30
21676;DHT22;10999;51.332;9.458;2023-04-03T02:30:59;0.30;79.60
21676;DHT22;10999;51.332;9.458;2023-04-03T02:33:26;0.20;79.80
21676;DHT22;10999;51.332;9.458;2023-04-03T02:35:56;0.20;80.20
21676;DHT22;10999;51.332;9.458;2023-04-03T02:38:24;0.20;80.70
21676;DHT22;10999;51.332;9.458;2023-04-03T02:40:51;0.10;80.80
21676;DHT22;10999;51.332;9.458;2023-04-03T02:43:18;0.10;81.10
21676;DHT22;10999;51.332;9.458;2023-04-03T02:45:45;0.10;81.40
21676;DHT22;10999;51.332;9.458;2023-04-03T02:48:12;0.10;81.80
21676;DHT22;10999;51.332;9.458;2023-04-03T02:50:38;0.10;82.40
21676;DHT22;10999;51.332;9.458;2023-04-03T02:53:05;0.10;81.60
21676;DHT22;10999;51.332;9.458;2023-04-03T02:55:32;0.00;81.40
21676;DHT22;10999;51.332;9.458;2023-04-03T02:57:58;0.10;81.50
21676;DHT22;10999;51.332;9.458;2023-04-03T03:00:25;0.10;81.60
21676;DHT22;10999;51.332;9.458;2023-04-03T03:02:52;0.00;81.60
21676;DHT22;10999;51.332;9.458;2023-04-03T03:05:19;0.00;81.40
21676;DHT22;10999;51.332;9.458;2023-04-03T03:07:46;-0.10;81.90
21676;DHT22;10999;51.332;9.458;2023-04-03T03:10:12;-0.10;82.00
21676;DHT22;10999;51.332;9.458;2023-04-03T03:12:39;-0.10;82.20
21676;DHT22;10999;51.332;9.458;2023-04-03T03:15:07;-0.10;82.30
21676;DHT22;10999;51.332;9.458;2023-04-03T03:17:34;-0.20;82.50
21676;DHT22;10999;51.332;9.458;2023-04-03T03:20:06;-0.20;82.90
21676;DHT22;10999;51.332;9.458;2023-04-03T03:22:34;-0.20;83.00
21676;DHT22;10999;51.332;9.458;2023-04-03T03:25:02;-0.20;83.40
21676;DHT22;10999;51.332;9.458;2023-04-03T03:27:29;-0.20;83.50
21676;DHT22;10999;51.332;9.458;2023-04-03T03:29:56;-0.30;83.50
21676;DHT22;10999;51.332;9.458;2023-04-03T03:32:22;-0.30;83.70
21676;DHT22;10999;51.332;9.458;2023-04-03T03:34:49;-0.30;84.70
21676;DHT22;10999;51.332;9.458;2023-04-03T03:37:16;-0.40;84.10
21676;DHT22;10999;51.332;9.458;2023-04-03T03:39:42;-0.40;84.20
21676;DHT22;10999;51.332;9.458;2023-04-03T03:42:09;-0.40;84.50
21676;DHT22;10999;51.332;9.458;2023-04-03T03:44:36;-0.40;84.60
21676;DHT22;10999;51.332;9.458;2023-04-03T03:47:03;-0.50;84.70
21676;DHT22;10999;51.332;9.458;2023-04-03T03:49:29;-0.50;84.80
21676;DHT22;10999;51.332;9.458;2023-04-03T03:51:56;-0.50;84.90
21676;DHT22;10999;51.332;9.458;2023-04-03T03:54:23;-0.50;84.90
21676;DHT22;10999;51.332;9.458;2023-04-03T03:56:49;-0.50;85.00
21676;DHT22;10999;51.332;9.458;2023-04-03T03:59:16;-0.50;85.20
21676;DHT22;10999;51.332;9.458;2023-04-03T04:01:43;-0.50;85.30
21676;DHT22;10999;51.332;9.458;2023-04-03T04:04:10;-0.50;85.20
21676;DHT22;10999;51.332;9.458;2023-04-03T04:06:37;-0.50;85.00
21676;DHT22;10999;51.332;9.458;2023-04-03T04:09:03;-0.50;85.10
21676;DHT22;10999;51.332;9.458;2023-04-03T04:11:30;-0.60;85.10
21676;DHT22;10999;51.332;9.458;2023-04-03T04:13:58;-0.60;85.10
21676;DHT22;10999;51.332;9.458;2023-04-03T04:16:25;-0.60;85.10
21676;DHT22;10999;51.332;9.458;2023-04-03T04:18:52;-0.60;85.20
21676;DHT22;10999;51.332;9.458;2023-04-03T04:21:19;-0.60;85.10
21676;DHT22;10999;51.332;9.458;2023-04-03T04:23:46;-0.60;85.10
21676;DHT22;10999;51.332;9.458;2023-04-03T04:26:12;-0.60;85.20
21676;DHT22;10999;51.332;9.458;2023-04-03T04:28:39;-0.60;85.20
21676;DHT22;10999;51.332;9.458;2023-04-03T04:31:06;-0.70;85.10
21676;DHT22;10999;51.332;9.458;2023-04-03T04:33:32;-0.70;85.10
21676;DHT22;10999;51.332;9.458;2023-04-03T04:35:59;-0.70;85.10
21676;DHT22;10999;51.332;9.458;2023-04-03T04:38:26;-0.80;85.10
21676;DHT22;10999;51.332;9.458;2023-04-03T04:40:53;-0.80;85.30
21676;DHT22;10999;51.332;9.458;2023-04-03T04:43:19;-0.80;85.30
21676;DHT22;10999;51.332;9.458;2023-04-03T04:45:46;-0.80;85.40
21676;DHT22;10999;51.332;9.458;2023-04-03T04:48:13;-0.90;85.40
21676;DHT22;10999;51.332;9.458;2023-04-03T04:50:40;-0.80;85.40
21676;DHT22;10999;51.332;9.458;2023-04-03T04:53:06;-0.80;85.20
21676;DHT22;10999;51.332;9.458;2023-04-03T04:55:33;-0.90;85.20
21676;DHT22;10999;51.332;9.458;2023-04-03T04:58:00;-0.90;85.20
21676;DHT22;10999;51.332;9.458;2023-04-03T05:00:27;-0.90;85.10
21676;DHT22;10999;51.332;9.458;2023-04-03T05:02:54;-0.80;84.80
21676;DHT22;10999;51.332;9.458;2023-04-03T05:05:21;-0.90;84.70
21676;DHT22;10999;51.332;9.458;2023-04-03T05:07:47;-0.90;84.50
21676;DHT22;10999;51.332;9.458;2023-04-03T05:10:14;-0.90;84.30
21676;DHT22;10999;51.332;9.458;2023-04-03T05:12:41;-0.90;84.10
21676;DHT22;10999;51.332;9.458;2023-04-03T05:15:08;-0.90;84.10
21676;DHT22;10999;51.332;9.458;2023-04-03T05:17:35;-0.90;84.10
21676;DHT22;10999;51.332;9.458;2023-04-03T05:20:03;-0.90;84.00
21676;DHT22;10999;51.332;9.458;2023-04-03T05:22:31;-0.90;83.90
21676;DHT22;10999;51.332;9.458;2023-04-03T05:24:58;-0.90;84.00
21676;DHT22;10999;51.332;9.458;2023-04-03T05:27:24;-0.80;83.90
21676;DHT22;10999;51.332;9.458;2023-04-03T05:29:52;-0.80;83.40
21676;DHT22;10999;51.332;9.458;2023-04-03T05:32:19;-0.60;83.40
21676;DHT22;10999;51.332;9.458;2023-04-03T05:34:46;-0.50;83.30
21676;DHT22;10999;51.332;9.458;2023-04-03T05:37:13;-0.40;83.20
21676;DHT22;10999;51.332;9.458;2023-04-03T05:39:40;-0.30;83.00
21676;DHT22;10999;51.332;9.458;2023-04-03T05:42:07;-0.10;82.50
21676;DHT22;10999;51.332;9.458;2023-04-03T05:44:34;0.00;81.70
21676;DHT22;10999;51.332;9.458;2023-04-03T05:47:02;0.20;81.30
21676;DHT22;10999;51.332;9.458;2023-04-03T05:49:29;0.20;80.00
21676;DHT22;10999;51.332;9.458;2023-04-03T05:51:56;0.20;79.40
21676;DHT22;10999;51.332;9.458;2023-04-03T05:54:28;0.20;79.00
21676;DHT22;10999;51.332;9.458;2023-04-03T05:56:55;0.30;78.90
21676;DHT22;10999;51.332;9.458;2023-04-03T05:59:22;0.20;77.80
21676;DHT22;10999;51.332;9.458;2023-04-03T06:01:49;0.20;78.00
21676;DHT22;10999;51.332;9.458;2023-04-03T06:04:15;0.30;78.20
21676;DHT22;10999;51.332;9.458;2023-04-03T06:06:54;0.40;78.50
21676;DHT22;10999;51.332;9.458;2023-04-03T06:09:24;0.50;78.40
21676;DHT22;10999;51.332;9.458;2023-04-03T06:11:52;0.60;77.90
21676;DHT22;10999;51.332;9.458;2023-04-03T06:14:19;0.60;77.20
21676;DHT22;10999;51.332;9.458;2023-04-03T06:16:46;0.60;75.10
21676;DHT22;10999;51.332;9.458;2023-04-03T06:19:13;0.60;73.50
21676;DHT22;10999;51.332;9.458;2023-04-03T06:21:40;0.60;73.60
21676;DHT22;10999;51.332;9.458;2023-04-03T06:24:12;0.70;73.60
21676;DHT22;10999;51.332;9.458;2023-04-03T06:26:40;0.80;74.20
21676;DHT22;10999;51.332;9.458;2023-04-03T06:29:07;0.90;70.80
21676;DHT22;10999;51.332;9.458;2023-04-03T06:31:34;1.20;70.80
21676;DHT22;10999;51.332;9.458;2023-04-03T06:34:03;1.40;68.10
21676;DHT22;10999;51.332;9.458;2023-04-03T06:36:30;1.70;68.80
21676;DHT22;10999;51.332;9.458;2023-04-03T06:38:56;2.10;67.20
21676;DHT22;10999;51.332;9.458;2023-04-03T06:41:23;2.40;65.10
21676;DHT22;10999;51.332;9.458;2023-04-03T06:43:50;2.70;60.10
21676;DHT22;10999;51.332;9.458;2023-04-03T06:46:19;3.00;60.10
21676;DHT22;10999;51.332;9.458;2023-04-03T06:48:48;3.30;55.80
21676;DHT22;10999;51.332;9.458;2023-04-03T06:51:27;3.40;56.00
21676;DHT22;10999;51.332;9.458;2023-04-03T06:53:57;3.80;58.10
21676;DHT22;10999;51.332;9.458;2023-04-03T06:56:25;4.00;51.80
21676;DHT22;10999;51.332;9.458;2023-04-03T06:58:53;4.20;50.40
21676;DHT22;10999;51.332;9.458;2023-04-03T07:01:26;4.50;50.80
21676;DHT22;10999;51.332;9.458;2023-04-03T07:03:54;5.00;51.10
21676;DHT22;10999;51.332;9.458;2023-04-03T07:06:21;5.20;48.90
21676;DHT22;10999;51.332;9.458;2023-04-03T07:08:48;5.80;48.70
21676;DHT22;10999;51.332;9.458;2023-04-03T07:11:16;6.10;41.50
21676;DHT22;10999;51.332;9.458;2023-04-03T07:13:42;6.20;37.20
21676;DHT22;10999;51.332;9.458;2023-04-03T07:16:09;6.40;35.80
21676;DHT22;10999;51.332;9.458;2023-04-03T07:18:37;6.60;35.40
21676;DHT22;10999;51.332;9.458;2023-04-03T07:21:04;6.70;35.60
21676;DHT22;10999;51.332;9.458;2023-04-03T07:23:31;7.10;37.20
21676;DHT22;10999;51.332;9.458;2023-04-03T07:25:57;7.20;33.50
21676;DHT22;10999;51.332;9.458;2023-04-03T07:28:24;7.50;32.50
21676;DHT22;10999;51.332;9.458;2023-04-03T07:30:54;7.60;29.90
21676;DHT22;10999;51.332;9.458;2023-04-03T07:33:22;7.60;30.70
21676;DHT22;10999;51.332;9.458;2023-04-03T07:35:49;7.80;30.60
21676;DHT22;10999;51.332;9.458;2023-04-03T07:38:16;7.80;29.00
21676;DHT22;10999;51.332;9.458;2023-04-03T07:40:47;7.80;27.50
21676;DHT22;10999;51.332;9.458;2023-04-03T07:43:15;8.10;29.00
21676;DHT22;10999;51.332;9.458;2023-04-03T07:45:42;8.30;26.60
21676;DHT22;10999;51.332;9.458;2023-04-03T07:48:11;8.30;30.10
21676;DHT22;10999;51.332;9.458;2023-04-03T07:50:40;8.30;24.70
21676;DHT22;10999;51.332;9.458;2023-04-03T07:53:07;8.00;23.40
21676;DHT22;10999;51.332;9.458;2023-04-03T07:55:35;7.90;27.70
21676;DHT22;10999;51.332;9.458;2023-04-03T07:58:06;7.90;24.40
21676;DHT22;10999;51.332;9.458;2023-04-03T08:00:33;7.90;23.70
21676;DHT22;10999;51.332;9.458;2023-04-03T08:03:00;8.20;26.60
21676;DHT22;10999;51.332;9.458;2023-04-03T08:05:28;8.50;25.40
21676;DHT22;10999;51.332;9.458;2023-04-03T08:07:55;8.40;21.10
21676;DHT22;10999;51.332;9.458;2023-04-03T08:10:21;8.50;22.80
21676;DHT22;10999;51.332;9.458;2023-04-03T08:12:48;8.70;23.10
21676;DHT22;10999;51.332;9.458;2023-04-03T08:15:15;9.00;20.10
21676;DHT22;10999;51.332;9.458;2023-04-03T08:17:42;8.90;19.80
21676;DHT22;10999;51.332;9.458;2023-04-03T08:20:10;8.90;17.30
21676;DHT22;10999;51.332;9.458;2023-04-03T08:22:36;8.90;17.00
21676;DHT22;10999;51.332;9.458;2023-04-03T08:25:03;8.90;17.10
21676;DHT22;10999;51.332;9.458;2023-04-03T08:27:30;8.80;17.50
21676;DHT22;10999;51.332;9.458;2023-04-03T08:29:58;8.60;15.10
21676;DHT22;10999;51.332;9.458;2023-04-03T08:32:25;8.50;16.60
21676;DHT22;10999;51.332;9.458;2023-04-03T08:34:52;8.40;18.70
21676;DHT22;10999;51.332;9.458;2023-04-03T08:37:18;8.80;18.00
21676;DHT22;10999;51.332;9.458;2023-04-03T08:39:46;9.20;15.30
21676;DHT22;10999;51.332;9.458;2023-04-03T08:42:48;9.10;15.10
21676;DHT22;10999;51.332;9.458;2023-04-03T08:45:48;8.80;14.20
21676;DHT22;10999;51.332;9.458;2023-04-03T08:48:38;8.80;16.10
21676;DHT22;10999;51.332;9.458;2023-04-03T08:51:14;8.80;14.40
21676;DHT22;10999;51.332;9.458;2023-04-03T08:54:00;8.90;15.40
21676;DHT22;10999;51.332;9.458;2023-04-03T08:56:31;9.20;17.00
21676;DHT22;10999;51.332;9.458;2023-04-03T08:59:04;9.60;15.80
21676;DHT22;10999;51.332;9.458;2023-04-03T09:01:37;9.70;17.40
21676;DHT22;10999;51.332;9.458;2023-04-03T09:04:14;9.70;14.80
21676;DHT22;10999;51.332;9.458;2023-04-03T09:06:48;9.40;13.40
21676;DHT22;10999;51.332;9.458;2023-04-03T09:15:06;8.60;15.10
21676;DHT22;10999;51.332;9.458;2023-04-03T09:22:43;8.70;15.60
21676;DHT22;10999;51.332;9.458;2023-04-03T09:25:23;9.00;14.80
21676;DHT22;10999;51.332;9.458;2023-04-03T09:27:52;8.70;13.60
21676;DHT22;10999;51.332;9.458;2023-04-03T09:30:24;8.40;14.50
21676;DHT22;10999;51.332;9.458;2023-04-03T09:32:56;8.60;16.40
21676;DHT22;10999;51.332;9.458;2023-04-03T09:35:31;8.60;14.70
21676;DHT22;10999;51.332;9.458;2023-04-03T09:40:42;8.50;17.30
21676;DHT22;10999;51.332;9.458;2023-04-03T09:43:30;8.60;13.90
21676;DHT22;10999;51.332;9.458;2023-04-03T09:49:02;9.30;14.80
21676;DHT22;10999;51.332;9.458;2023-04-03T09:51:32;8.90;13.40
21676;DHT22;10999;51.332;9.458;2023-04-03T09:53:59;9.00;12.90
21676;DHT22;10999;51.332;9.458;2023-04-03T09:56:30;9.30;16.80
21676;DHT22;10999;51.332;9.458;2023-04-03T10:01:32;8.70;15.10
21676;DHT22;10999;51.332;9.458;2023-04-03T10:04:18;8.60;18.10
21676;DHT22;10999;51.332;9.458;2023-04-03T10:06:46;8.40;14.60
21676;DHT22;10999;51.332;9.458;2023-04-03T10:09:28;7.90;14.80
21676;DHT22;10999;51.332;9.458;2023-04-03T10:14:40;7.10;17.00
21676;DHT22;10999;51.332;9.458;2023-04-03T10:17:16;6.60;18.40
21676;DHT22;10999;51.332;9.458;2023-04-03T10:19:53;6.40;18.60
21676;DHT22;10999;51.332;9.458;2023-04-03T10:25:17;5.80;19.30
21676;DHT22;10999;51.332;9.458;2023-04-03T10:27:59;5.60;19.70
21676;DHT22;10999;51.332;9.458;2023-04-03T10:36:07;5.50;20.90
21676;DHT22;10999;51.332;9.458;2023-04-03T10:41:39;5.30;21.40
21676;DHT22;10999;51.332;9.458;2023-04-03T10:44:12;5.20;20.80
21676;DHT22;10999;51.332;9.458;2023-04-03T10:57:06;6.50;20.00
21676;DHT22;10999;51.332;9.458;2023-04-03T10:59:49;6.80;18.90
21676;DHT22;10999;51.332;9.458;2023-04-03T11:02:32;7.00;19.30
21676;DHT22;10999;51.332;9.458;2023-04-03T11:05:06;7.20;19.10
21676;DHT22;10999;51.332;9.458;2023-04-03T11:07:43;6.90;17.90
21676;DHT22;10999;51.332;9.458;2023-04-03T11:10:17;6.80;17.90
21676;DHT22;10999;51.332;9.458;2023-04-03T11:12:56;6.50;18.10
21676;DHT22;10999;51.332;9.458;2023-04-03T11:15:24;6.30;20.40
21676;DHT22;10999;51.332;9.458;2023-04-03T11:18:27;6.00;18.10
21676;DHT22;10999;51.332;9.458;2023-04-03T11:23:45;5.80;20.70
21676;DHT22;10999;51.332;9.458;2023-04-03T11:26:18;5.80;20.10
21676;DHT22;10999;51.332;9.458;2023-04-03T11:28:45;5.70;20.70
21676;DHT22;10999;51.332;9.458;2023-04-03T11:31:42;5.70;21.10
21676;DHT22;10999;51.332;9.458;2023-04-03T11:34:47;5.90;21.20
21676;DHT22;10999;51.332;9.458;2023-04-03T11:37:38;5.90;19.00
21676;DHT22;10999;51.332;9.458;2023-04-03T11:40:27;6.20;19.00
21676;DHT22;10999;51.332;9.458;2023-04-03T11:43:20;6.50;18.70
21676;DHT22;10999;51.332;9.458;2023-04-03T11:48:48;7.10;19.20
21676;DHT22;10999;51.332;9.458;2023-04-03T11:53:47;6.80;17.80
21676;DHT22;10999;51.332;9.458;2023-04-03T12:01:56;7.20;17.40
21676;DHT22;10999;51.332;9.458;2023-04-03T12:04:26;7.30;17.60
21676;DHT22;10999;51.332;9.458;2023-04-03T12:07:00;7.50;17.70
21676;DHT22;10999;51.332;9.458;2023-04-03T12:09:35;7.50;16.30
21676;DHT22;10999;51.332;9.458;2023-04-03T12:12:33;7.50;16.60
21676;DHT22;10999;51.332;9.458;2023-04-03T12:18:43;7.50;18.50
21676;DHT22;10999;51.332;9.458;2023-04-03T12:21:12;7.80;19.80
21676;DHT22;10999;51.332;9.458;2023-04-03T12:26:24;7.40;16.90
21676;DHT22;10999;51.332;9.458;2023-04-03T12:29:19;7.30;19.60
21676;DHT22;10999;51.332;9.458;2023-04-03T12:34:51;7.00;18.80
21676;DHT22;10999;51.332;9.458;2023-04-03T12:43:07;6.40;20.60
21676;DHT22;10999;51.332;9.458;2023-04-03T12:45:42;6.10;20.20
21676;DHT22;10999;51.332;9.458;2023-04-03T12:48:17;6.30;21.30
21676;DHT22;10999;51.332;9.458;2023-04-03T12:50:46;6.60;20.00
21676;DHT22;10999;51.332;9.458;2023-04-03T12:53:22;6.80;20.30
21676;DHT22;10999;51.332;9.458;2023-04-03T12:56:20;6.90;20.20
21676;DHT22;10999;51.332;9.458;2023-04-03T12:58:48;6.70;19.10
21676;DHT22;10999;51.332;9.458;2023-04-03T13:01:18;6.70;19.80
21676;DHT22;10999;51.332;9.458;2023-04-03T13:03:49;6.50;19.10
21676;DHT22;10999;51.332;9.458;2023-04-03T13:06:42;6.50;20.00
21676;DHT22;10999;51.332;9.458;2023-04-03T13:09:24;6.40;19.40
21676;DHT22;10999;51.332;9.458;2023-04-03T13:12:04;6.60;19.00
21676;DHT22;10999;51.332;9.458;2023-04-03T13:14:37;6.90;20.90
21676;DHT22;10999;51.332;9.458;2023-04-03T13:17:12;7.30;20.00
21676;DHT22;10999;51.332;9.458;2023-04-03T13:19:41;7.70;18.50
21676;DHT22;10999;51.332;9.458;2023-04-03T13:24:55;7.80;15.40
21676;DHT22;10999;51.332;9.458;2023-04-03T13:27:24;8.00;16.30
21676;DHT22;10999;51.332;9.458;2023-04-03T13:29:54;8.10;16.20
21676;DHT22;10999;51.332;9.458;2023-04-03T13:32:27;8.20;17.30
21676;DHT22;10999;51.332;9.458;2023-04-03T13:34:54;8.30;15.20
21676;DHT22;10999;51.332;9.458;2023-04-03T13:37:30;8.20;15.70
21676;DHT22;10999;51.332;9.458;2023-04-03T13:40:00;8.20;17.40
21676;DHT22;10999;51.332;9.458;2023-04-03T13:42:30;7.90;16.10
21676;DHT22;10999;51.332;9.458;2023-04-03T13:47:44;7.40;17.80
21676;DHT22;10999;51.332;9.458;2023-04-03T13:50:16;7.60;20.00
21676;DHT22;10999;51.332;9.458;2023-04-03T13:52:50;7.80;18.90
21676;DHT22;10999;51.332;9.458;2023-04-03T14:00:53;7.60;17.80
21676;DHT22;10999;51.332;9.458;2023-04-03T14:03:27;7.20;17.40
21676;DHT22;10999;51.332;9.458;2023-04-03T14:05:56;7.10;18.20
21676;DHT22;10999;51.332;9.458;2023-04-03T14:08:23;7.10;18.30
21676;DHT22;10999;51.332;9.458;2023-04-03T14:11:19;7.10;18.90
21676;DHT22;10999;51.332;9.458;2023-04-03T14:13:47;7.30;17.70
21676;DHT22;10999;51.332;9.458;2023-04-03T14:16:23;7.50;17.80
21676;DHT22;10999;51.332;9.458;2023-04-03T14:18:51;7.50;16.60
21676;DHT22;10999;51.332;9.458;2023-04-03T14:21:19;7.50;17.30
21676;DHT22;10999;51.332;9.458;2023-04-03T14:23:46;7.40;18.20
21676;DHT22;10999;51.332;9.458;2023-04-03T14:26:19;7.30;18.60
21676;DHT22;10999;51.332;9.458;2023-04-03T14:28:52;7.40;18.50
21676;DHT22;10999;51.332;9.458;2023-04-03T14:31:20;7.60;19.20
21676;DHT22;10999;51.332;9.458;2023-04-03T14:33:47;7.80;18.60
21676;DHT22;10999;51.332;9.458;2023-04-03T14:38:43;7.80;16.20
21676;DHT22;10999;51.332;9.458;2023-04-03T14:41:12;7.50;16.10
21676;DHT22;10999;51.332;9.458;2023-04-03T14:43:43;7.20;17.40
21676;DHT22;10999;51.332;9.458;2023-04-03T14:48:45;7.20;17.70
21676;DHT22;10999;51.332;9.458;2023-04-03T14:51:13;7.30;17.90
21676;DHT22;10999;51.332;9.458;2023-04-03T14:53:42;7.40;17.70
21676;DHT22;10999;51.332;9.458;2023-04-03T14:56:13;7.40;17.90
21676;DHT22;10999;51.332;9.458;2023-04-03T14:58:40;7.30;18.70
21676;DHT22;10999;51.332;9.458;2023-04-03T15:01:10;7.10;18.00
21676;DHT22;10999;51.332;9.458;2023-04-03T15:03:37;6.90;19.70
21676;DHT22;10999;51.332;9.458;2023-04-03T15:06:04;6.80;18.50
21676;DHT22;10999;51.332;9.458;2023-04-03T15:08:31;6.60;18.20
21676;DHT22;10999;51.332;9.458;2023-04-03T15:10:58;6.70;18.10
21676;DHT22;10999;51.332;9.458;2023-04-03T15:13:25;6.80;18.20
21676;DHT22;10999;51.332;9.458;2023-04-03T15:15:52;6.90;16.80
21676;DHT22;10999;51.332;9.458;2023-04-03T15:18:24;7.00;17.10
21676;DHT22;10999;51.332;9.458;2023-04-03T15:20:56;7.10;16.40
21676;DHT22;10999;51.332;9.458;2023-04-03T15:23:23;7.20;17.60
21676;DHT22;10999;51.332;9.458;2023-04-03T15:25:54;7.30;16.80
21676;DHT22;10999;51.332;9.458;2023-04-03T15:28:34;7.30;17.40
21676;DHT22;10999;51.332;9.458;2023-04-03T15:31:02;7.40;16.70
21676;DHT22;10999;51.332;9.458;2023-04-03T15:33:30;7.50;17.30
21676;DHT22;10999;51.332;9.458;2023-04-03T15:35:57;7.40;16.60
21676;DHT22;10999;51.332;9.458;2023-04-03T15:38:33;7.10;17.10
21676;DHT22;10999;51.332;9.458;2023-04-03T15:41:00;7.10;18.20
21676;DHT22;10999;51.332;9.458;2023-04-03T15:43:27;7.20;17.70
21676;DHT22;10999;51.332;9.458;2023-04-03T15:45:57;7.20;17.70
21676;DHT22;10999;51.332;9.458;2023-04-03T15:48:25;7.20;17.30
21676;DHT22;10999;51.332;9.458;2023-04-03T15:50:52;7.20;17.30
21676;DHT22;10999;51.332;9.458;2023-04-03T15:53:19;7.20;17.00
21676;DHT22;10999;51.332;9.458;2023-04-03T15:55:45;7.30;17.50
21676;DHT22;10999;51.332;9.458;2023-04-03T15:58:12;7.30;17.40
21676;DHT22;10999;51.332;9.458;2023-04-03T16:00:41;7.20;18.20
21676;DHT22;10999;51.332;9.458;2023-04-03T16:03:18;7.00;18.00
21676;DHT22;10999;51.332;9.458;2023-04-03T16:05:46;6.80;18.10
21676;DHT22;10999;51.332;9.458;2023-04-03T16:08:14;6.50;18.20
21676;DHT22;10999;51.332;9.458;2023-04-03T16:10:41;6.30;17.50
21676;DHT22;10999;51.332;9.458;2023-04-03T16:13:07;6.10;18.30
21676;DHT22;10999;51.332;9.458;2023-04-03T16:15:34;6.10;19.50
21676;DHT22;10999;51.332;9.458;2023-04-03T16:18:02;6.10;18.00
21676;DHT22;10999;51.332;9.458;2023-04-03T16:20:29;6.20;18.70
21676;DHT22;10999;51.332;9.458;2023-04-03T16:22:58;6.20;19.70
21676;DHT22;10999;51.332;9.458;2023-04-03T16:25:26;6.30;18.80
21676;DHT22;10999;51.332;9.458;2023-04-03T16:27:53;6.30;19.40
21676;DHT22;10999;51.332;9.458;2023-04-03T16:30:20;6.40;20.00
21676;DHT22;10999;51.332;9.458;2023-04-03T16:32:47;6.40;19.60
21676;DHT22;10999;51.332;9.458;2023-04-03T16:35:13;6.30;19.40
21676;DHT22;10999;51.332;9.458;2023-04-03T16:37:40;6.20;19.80
21676;DHT22;10999;51.332;9.458;2023-04-03T16:40:08;6.10;20.40
21676;DHT22;10999;51.332;9.458;2023-04-03T16:42:35;6.10;20.60
21676;DHT22;10999;51.332;9.458;2023-04-03T16:45:05;6.00;19.90
21676;DHT22;10999;51.332;9.458;2023-04-03T16:47:32;6.00;20.90
21676;DHT22;10999;51.332;9.458;2023-04-03T16:49:59;5.90;20.50
21676;DHT22;10999;51.332;9.458;2023-04-03T16:52:26;5.90;20.50
21676;DHT22;10999;51.332;9.458;2023-04-03T16:54:53;5.80;20.30
21676;DHT22;10999;51.332;9.458;2023-04-03T16:57:22;5.80;20.00
21676;DHT22;10999;51.332;9.458;2023-04-03T16:59:51;5.70;20.00
21676;DHT22;10999;51.332;9.458;2023-04-03T17:02:20;5.70;20.90
21676;DHT22;10999;51.332;9.458;2023-04-03T17:04:47;5.70;19.30
21676;DHT22;10999;51.332;9.458;2023-04-03T17:07:20;5.70;19.50
21676;DHT22;10999;51.332;9.458;2023-04-03T17:09:47;5.60;20.10
21676;DHT22;10999;51.332;9.458;2023-04-03T17:12:14;5.60;20.90
21676;DHT22;10999;51.332;9.458;2023-04-03T17:14:41;5.50;21.20
21676;DHT22;10999;51.332;9.458;2023-04-03T17:17:08;5.40;21.60
21676;DHT22;10999;51.332;9.458;2023-04-03T17:19:36;5.40;22.50
21676;DHT22;10999;51.332;9.458;2023-04-03T17:22:05;5.40;22.60
21676;DHT22;10999;51.332;9.458;2023-04-03T17:24:33;5.30;23.50
21676;DHT22;10999;51.332;9.458;2023-04-03T17:26:59;5.30;24.60
21676;DHT22;10999;51.332;9.458;2023-04-03T17:29:26;5.30;23.80
21676;DHT22;10999;51.332;9.458;2023-04-03T17:31:53;5.30;24.20
21676;DHT22;10999;51.332;9.458;2023-04-03T17:34:20;5.20;23.70